createdAt,value
2018-07-04T00:00:29.222Z,67.06
2018-07-04T00:03:08.692Z,67.83
2018-07-04T00:05:48.311Z,67.64
2018-07-04T00:08:27.909Z,66.70
2018-07-04T00:11:07.539Z,67.62
2018-07-04T00:13:46.970Z,67.25
2018-07-04T00:16:26.489Z,67.72
2018-07-04T00:19:06.037Z,68.38
2018-07-04T00:21:45.650Z,69.40
2018-07-04T00:24:25.205Z,69.73
2018-07-04T00:27:04.850Z,70.50
2018-07-04T00:29:44.481Z,71.05
2018-07-04T00:32:24.058Z,71.47
2018-07-04T00:35:03.634Z,71.21
2018-07-04T00:37:43.532Z,71.74
2018-07-04T00:40:23.251Z,72.54
2018-07-04T00:43:03.218Z,72.64
2018-07-04T00:45:42.826Z,71.88
2018-07-04T00:48:22.614Z,70.14
2018-07-04T00:51:02.454Z,70.03
2018-07-04T00:53:42.905Z,68.89
2018-07-04T00:56:22.550Z,67.97
2018-07-04T00:59:02.605Z,66.58
2018-07-04T01:01:42.824Z,66.43
2018-07-04T01:04:23.233Z,63.82
2018-07-04T01:18:25.514Z,65.67
2018-07-04T01:21:11.651Z,66.05
2018-07-04T01:23:51.221Z,64.72
2018-07-04T01:26:31.006Z,66.26
2018-07-04T01:29:10.766Z,65.59
2018-07-04T01:31:50.778Z,66.29
2018-07-04T01:34:30.322Z,65.58
2018-07-04T01:37:10.816Z,67.10
2018-07-04T01:39:50.887Z,67.34
2018-07-04T01:42:30.956Z,67.65
2018-07-04T01:45:10.641Z,67.13
2018-07-04T01:47:51.044Z,67.13
2018-07-04T01:50:31.298Z,69.18
2018-07-04T01:53:10.767Z,71.48
2018-07-04T01:55:51.075Z,71.26
2018-07-04T01:58:30.849Z,72.23
2018-07-04T02:01:10.343Z,72.50
2018-07-04T02:03:50.601Z,73.07
2018-07-04T02:06:30.274Z,71.83
2018-07-04T02:09:09.829Z,71.22
2018-07-04T02:11:49.691Z,71.08
2018-07-04T02:14:29.225Z,70.49
2018-07-04T02:17:09.006Z,70.44
2018-07-04T02:19:48.738Z,70.11
2018-07-04T02:22:29.217Z,68.92
2018-07-04T02:25:08.745Z,70.00
2018-07-04T02:27:48.360Z,69.85
2018-07-04T02:30:28.006Z,70.15
2018-07-04T02:33:08.278Z,70.03
2018-07-04T02:35:52.387Z,69.93
2018-07-04T02:38:32.219Z,70.19
2018-07-04T02:41:12.051Z,71.32
2018-07-04T02:43:52.385Z,71.65
2018-07-04T02:46:37.161Z,73.08
2018-07-04T02:49:16.797Z,74.09
2018-07-04T02:51:56.374Z,74.03
2018-07-04T02:54:37.260Z,72.38
2018-07-04T02:57:17.717Z,72.42
2018-07-04T02:59:58.464Z,72.63
2018-07-04T03:02:38.074Z,71.92
2018-07-04T03:05:17.547Z,72.98
2018-07-04T03:07:57.595Z,73.25
2018-07-04T03:10:37.518Z,73.57
2018-07-04T03:13:17.412Z,75.12
2018-07-04T03:15:58.182Z,74.52
2018-07-04T03:18:37.838Z,73.58
2018-07-04T03:21:17.804Z,73.08
2018-07-04T03:23:57.562Z,73.71
2018-07-04T03:26:37.556Z,74.92
2018-07-04T03:29:17.861Z,73.61
2018-07-04T03:31:57.661Z,72.36
2018-07-04T03:34:37.350Z,72.56
2018-07-04T03:37:17.261Z,73.03
2018-07-04T03:39:56.827Z,74.94
2018-07-04T03:42:36.578Z,73.34
2018-07-04T03:45:17.243Z,72.89
2018-07-04T03:47:57.323Z,72.37
2018-07-04T03:50:37.234Z,72.60
2018-07-04T03:53:17.467Z,71.54
2018-07-04T03:55:57.258Z,72.16
2018-07-04T03:58:37.869Z,71.54
2018-07-04T04:01:17.870Z,72.11
2018-07-04T04:03:58.524Z,72.04
2018-07-04T04:06:38.753Z,70.42
2018-07-04T04:09:18.498Z,70.72
2018-07-04T04:11:58.828Z,69.23
2018-07-04T04:14:39.613Z,70.81
2018-07-04T04:17:19.685Z,70.36
2018-07-04T04:19:59.468Z,70.86
2018-07-04T04:22:39.290Z,70.90
2018-07-04T04:25:18.953Z,71.12
2018-07-04T04:27:58.929Z,72.45
2018-07-04T04:30:38.703Z,73.46
2018-07-04T04:33:18.402Z,73.64
2018-07-04T04:35:59.308Z,73.82
2018-07-04T04:38:39.230Z,73.01
2018-07-04T04:41:19.261Z,72.31
2018-07-04T04:43:59.516Z,71.86
2018-07-04T04:46:40.098Z,69.60
2018-07-04T04:49:20.686Z,68.57
2018-07-04T04:52:00.253Z,68.96
2018-07-04T04:54:40.335Z,69.69
2018-07-04T04:57:20.116Z,70.64
2018-07-04T04:59:59.760Z,70.70
2018-07-04T05:02:40.535Z,72.48
2018-07-04T05:05:20.161Z,71.44
2018-07-04T05:07:59.862Z,68.73
2018-07-04T05:10:39.545Z,66.35
2018-07-04T05:13:20.772Z,66.34
2018-07-04T05:16:00.344Z,64.82
2018-07-04T05:18:44.621Z,63.71
2018-07-04T05:21:24.353Z,63.69
2018-07-04T05:24:04.022Z,65.23
2018-07-04T05:26:44.069Z,63.60
2018-07-04T05:29:24.559Z,61.28
2018-07-04T05:32:04.350Z,60.74
2018-07-04T05:34:44.201Z,58.96
2018-07-04T05:37:23.839Z,58.21
2018-07-04T05:40:03.406Z,59.28
2018-07-04T05:42:43.041Z,58.48
2018-07-04T05:45:23.155Z,57.77
2018-07-04T05:48:03.983Z,58.09
2018-07-04T05:50:44.359Z,58.59
2018-07-04T05:53:24.003Z,58.44
2018-07-04T05:56:04.430Z,56.88
2018-07-04T05:58:44.893Z,54.88
2018-07-04T06:01:25.650Z,53.71
2018-07-04T06:04:05.274Z,55.68
2018-07-04T06:06:45.719Z,56.52
2018-07-04T06:09:26.222Z,57.25
2018-07-04T06:12:06.478Z,56.84
2018-07-04T06:14:46.437Z,57.76
2018-07-04T06:17:26.147Z,57.97
2018-07-04T06:20:05.952Z,58.55
2018-07-04T06:22:45.536Z,58.04
2018-07-04T06:25:25.661Z,59.87
2018-07-04T06:28:06.010Z,58.25
2018-07-04T06:30:45.901Z,57.35
2018-07-04T06:33:26.331Z,55.88
2018-07-04T06:36:06.588Z,54.16
2018-07-04T06:38:34.680Z,51.81
2018-07-04T06:41:01.945Z,50.12
2018-07-04T06:43:29.236Z,49.11
2018-07-04T06:45:56.819Z,48.89
2018-07-04T06:48:24.674Z,48.93
2018-07-04T06:50:51.930Z,49.32
2018-07-04T06:53:19.289Z,49.59
2018-07-04T06:55:46.882Z,48.47
2018-07-04T06:58:14.221Z,48.07
2018-07-04T07:00:41.484Z,47.19
2018-07-04T07:03:21.410Z,47.17
2018-07-04T07:06:01.178Z,46.25
2018-07-04T07:08:40.968Z,46.31
2018-07-04T07:11:20.898Z,45.50
2018-07-04T07:14:00.500Z,46.36
2018-07-04T07:16:40.315Z,44.12
2018-07-04T07:19:20.798Z,43.92
2018-07-04T07:22:00.211Z,45.64
2018-07-04T07:24:39.877Z,42.22
2018-07-04T07:27:20.352Z,44.08
2018-07-04T07:30:00.288Z,41.37
2018-07-04T07:32:40.483Z,42.24
2018-07-04T07:35:20.281Z,41.34
2018-07-04T07:38:01.869Z,42.35
2018-07-04T07:40:42.209Z,42.18
2018-07-04T07:43:21.736Z,41.03
2018-07-04T07:46:01.225Z,40.22
2018-07-04T07:48:40.925Z,41.52
2018-07-04T07:51:21.603Z,38.81
2018-07-04T07:54:01.865Z,40.35
2018-07-04T07:56:41.602Z,40.29
2018-07-04T07:59:21.031Z,41.00
2018-07-04T08:02:01.053Z,42.65
2018-07-04T08:04:40.950Z,41.94
2018-07-04T08:07:21.377Z,42.43
2018-07-04T08:10:01.157Z,42.52
2018-07-04T08:12:41.650Z,41.71
2018-07-04T08:15:22.846Z,43.28
2018-07-04T08:18:04.375Z,42.86
2018-07-04T08:20:44.770Z,42.55
2018-07-04T08:23:29.081Z,42.20
2018-07-04T08:26:09.695Z,42.66
2018-07-04T08:28:49.727Z,42.32
2018-07-04T08:31:29.978Z,44.35
2018-07-04T08:34:09.680Z,44.82
2018-07-04T08:36:50.129Z,44.94
2018-07-04T08:39:30.419Z,44.62
2018-07-04T08:42:10.465Z,46.42
2018-07-04T08:44:50.261Z,46.96
2018-07-04T08:47:29.911Z,46.81
2018-07-04T08:50:10.332Z,47.09
2018-07-04T08:52:50.282Z,47.73
2018-07-04T08:55:30.106Z,48.83
2018-07-04T08:58:09.942Z,51.40
2018-07-04T09:00:50.772Z,54.30
2018-07-04T09:03:31.243Z,57.15
2018-07-04T09:06:11.526Z,58.46
2018-07-04T09:08:51.923Z,59.99
2018-07-04T09:11:32.382Z,58.35
2018-07-04T09:14:12.421Z,59.80
2018-07-04T09:16:52.405Z,60.58
2018-07-04T09:19:32.034Z,60.18
2018-07-04T09:22:11.922Z,59.11
2018-07-04T09:24:51.940Z,61.48
2018-07-04T09:27:32.427Z,60.64
2018-07-04T09:30:12.997Z,59.73
2018-07-04T09:32:53.468Z,59.35
2018-07-04T09:35:33.596Z,57.60
2018-07-04T09:38:13.122Z,53.77
2018-07-04T09:40:52.705Z,54.16
2018-07-04T09:43:32.817Z,53.60
2018-07-04T09:46:12.297Z,50.98
2018-07-04T09:48:52.189Z,51.02
2018-07-04T09:51:31.689Z,50.10
2018-07-04T09:54:11.197Z,49.39
2018-07-04T09:56:51.285Z,51.87
2018-07-04T09:59:31.212Z,51.55
2018-07-04T10:02:11.524Z,51.22
2018-07-04T10:04:51.478Z,52.59
2018-07-04T10:07:31.185Z,52.26
2018-07-04T10:10:11.966Z,47.57
2018-07-04T10:12:51.536Z,45.84
2018-07-04T10:15:32.270Z,45.65
2018-07-04T10:18:12.246Z,44.14
2018-07-04T10:20:52.217Z,47.26
2018-07-04T10:23:32.281Z,46.50
2018-07-04T10:26:12.831Z,47.71
2018-07-04T10:28:53.738Z,47.67
2018-07-04T10:31:34.110Z,47.83
2018-07-04T10:34:15.566Z,47.07
2018-07-04T10:36:54.918Z,46.93
2018-07-04T10:39:37.724Z,47.31
2018-07-04T10:42:17.909Z,49.23
2018-07-04T10:44:57.477Z,47.92
2018-07-04T10:47:37.085Z,47.81
2018-07-04T10:50:17.017Z,47.05
2018-07-04T10:52:57.750Z,46.69
2018-07-04T10:55:37.571Z,47.15
2018-07-04T10:58:17.078Z,47.48
2018-07-04T11:00:56.713Z,46.28
2018-07-04T11:03:36.518Z,46.88
2018-07-04T11:06:16.267Z,46.35
2018-07-04T11:08:56.335Z,46.64
2018-07-04T11:11:35.935Z,45.95
2018-07-04T11:14:15.681Z,44.99
2018-07-04T11:16:55.889Z,47.64
2018-07-04T11:19:35.508Z,46.56
2018-07-04T11:22:15.249Z,46.12
2018-07-04T11:24:54.921Z,47.74
2018-07-04T11:27:35.445Z,48.94
2018-07-04T11:30:15.150Z,48.58
2018-07-04T11:32:55.405Z,47.67
2018-07-04T11:35:34.973Z,48.68
2018-07-04T11:38:15.710Z,47.17
2018-07-04T11:40:55.426Z,47.87
2018-07-04T11:43:35.342Z,50.01
2018-07-04T11:46:04.280Z,50.41
2018-07-04T11:48:32.179Z,50.68
2018-07-04T11:50:59.917Z,51.14
2018-07-04T11:53:27.951Z,49.86
2018-07-04T11:55:55.294Z,52.10
2018-07-04T11:58:22.764Z,52.39
2018-07-04T12:00:50.210Z,51.33
2018-07-04T12:03:21.566Z,51.41
2018-07-04T12:06:01.233Z,50.44
2018-07-04T12:08:28.937Z,52.31
2018-07-04T12:10:58.117Z,52.08
2018-07-04T12:13:28.670Z,52.24
2018-07-04T12:15:56.604Z,52.17
2018-07-04T12:18:25.698Z,60.35
2018-07-04T12:20:54.519Z,62.48
2018-07-04T12:23:22.638Z,66.61
2018-07-04T12:25:50.382Z,67.43
2018-07-04T12:28:18.573Z,69.20
2018-07-04T12:30:47.441Z,71.04
2018-07-04T12:33:17.227Z,74.00
2018-07-04T12:35:44.755Z,75.26
2018-07-04T12:38:12.106Z,75.96
2018-07-04T12:40:40.560Z,77.31
2018-07-04T12:43:08.597Z,76.84
2018-07-04T12:45:39.584Z,76.87
2018-07-04T12:48:06.902Z,78.40
2018-07-04T12:50:35.095Z,76.59
2018-07-04T12:53:02.778Z,75.55
2018-07-04T12:55:43.935Z,77.36
2018-07-04T12:58:24.808Z,78.52
2018-07-04T13:01:04.798Z,79.60
2018-07-04T13:03:44.491Z,77.06
2018-07-04T13:06:24.557Z,76.67
2018-07-04T13:09:05.882Z,76.60
2018-07-04T13:11:45.787Z,76.76
2018-07-04T13:14:25.426Z,77.59
2018-07-04T13:17:05.699Z,77.76
2018-07-04T13:19:45.740Z,79.59
2018-07-04T13:22:26.237Z,78.89
2018-07-04T13:25:06.341Z,79.41
2018-07-04T13:27:46.339Z,77.98
2018-07-04T13:30:26.453Z,76.81
2018-07-04T13:33:07.369Z,76.79
2018-07-04T13:35:47.261Z,76.38
2018-07-04T13:38:27.224Z,77.06
2018-07-04T13:41:06.726Z,76.88
2018-07-04T13:43:47.017Z,76.39
2018-07-04T13:46:27.929Z,75.74
2018-07-04T13:49:08.957Z,77.15
2018-07-04T13:51:49.732Z,75.41
2018-07-04T13:54:29.556Z,74.75
2018-07-04T13:57:09.234Z,76.08
2018-07-04T13:59:48.821Z,77.16
2018-07-04T14:02:28.910Z,71.37
2018-07-04T14:05:08.956Z,73.49
2018-07-04T14:07:48.480Z,71.14
2018-07-04T14:10:28.099Z,69.36
2018-07-04T14:13:08.007Z,71.26
2018-07-04T14:15:48.389Z,67.89
2018-07-04T14:18:28.448Z,68.58
2018-07-04T14:21:08.757Z,71.01
2018-07-04T14:23:48.445Z,69.88
2018-07-04T14:26:28.045Z,67.78
2018-07-04T14:29:08.070Z,67.77
2018-07-04T14:31:47.865Z,68.19
2018-07-04T14:34:27.530Z,68.28
2018-07-04T14:37:06.878Z,66.70
2018-07-04T14:39:46.514Z,67.32
2018-07-04T14:42:25.882Z,68.38
2018-07-04T14:45:05.556Z,67.95
2018-07-04T14:47:44.994Z,68.46
2018-07-04T14:50:24.586Z,66.12
2018-07-04T14:53:04.094Z,68.06
2018-07-04T14:55:43.702Z,67.20
2018-07-04T14:58:23.210Z,67.58
2018-07-04T15:01:02.786Z,69.10
2018-07-04T15:03:42.398Z,68.94
2018-07-04T15:06:22.027Z,70.32
2018-07-04T15:09:01.385Z,67.70
2018-07-04T15:11:40.906Z,65.64
2018-07-04T15:14:20.355Z,63.79
2018-07-04T15:16:59.968Z,63.74
2018-07-04T15:19:39.461Z,66.86
2018-07-04T15:22:19.096Z,65.64
2018-07-04T15:24:58.585Z,66.08
2018-07-04T15:27:38.030Z,66.81
2018-07-04T15:30:17.601Z,66.32
2018-07-04T15:32:57.133Z,64.67
2018-07-04T15:35:36.637Z,65.95
2018-07-04T15:38:16.212Z,65.87
2018-07-04T15:40:55.782Z,64.90
2018-07-04T15:43:35.257Z,66.02
2018-07-04T15:46:14.881Z,70.12
2018-07-04T15:48:54.477Z,66.81
2018-07-04T15:51:33.926Z,68.26
2018-07-04T15:54:13.589Z,66.75
2018-07-04T15:56:53.076Z,68.88
2018-07-04T15:59:32.640Z,66.26
2018-07-04T16:02:12.178Z,65.46
2018-07-04T16:04:52.591Z,65.10
2018-07-04T16:07:32.157Z,65.47
2018-07-04T16:10:11.805Z,65.93
2018-07-04T16:12:51.281Z,66.54
2018-07-04T16:15:30.719Z,64.72
2018-07-04T16:18:10.330Z,65.66
2018-07-04T16:20:49.786Z,65.45
2018-07-04T16:23:29.263Z,65.86
2018-07-04T16:26:08.870Z,65.51
2018-07-04T16:28:48.456Z,67.28
2018-07-04T16:31:28.082Z,63.79
2018-07-04T16:34:07.654Z,65.17
2018-07-04T16:36:47.393Z,64.08
2018-07-04T16:39:26.733Z,64.53
2018-07-04T16:42:07.269Z,64.32
2018-07-04T16:44:46.861Z,63.36
2018-07-04T16:47:26.302Z,67.21
2018-07-04T16:50:05.922Z,64.15
2018-07-04T16:52:45.497Z,63.85
2018-07-04T16:55:25.000Z,65.23
2018-07-04T16:58:04.633Z,64.96
2018-07-04T17:00:44.222Z,62.68
2018-07-04T17:03:23.846Z,61.62
2018-07-04T17:06:03.461Z,58.40
2018-07-04T17:08:43.155Z,56.07
2018-07-04T17:11:22.770Z,55.83
2018-07-04T17:14:02.222Z,53.59
2018-07-04T17:16:41.759Z,52.50
2018-07-04T17:19:21.231Z,51.85
2018-07-04T17:22:00.708Z,51.82
2018-07-04T17:24:40.342Z,51.24
2018-07-04T17:27:19.801Z,55.44
2018-07-04T17:29:59.345Z,56.05
2018-07-04T17:32:38.949Z,59.49
2018-07-04T17:35:18.673Z,59.20
2018-07-04T17:37:58.183Z,58.83
2018-07-04T17:40:37.789Z,61.22
2018-07-04T17:43:17.293Z,61.70
2018-07-04T17:45:56.777Z,62.00
2018-07-04T17:48:36.353Z,62.04
2018-07-04T17:51:15.998Z,62.69
2018-07-04T17:53:55.581Z,62.96
2018-07-04T17:56:35.181Z,61.89
2018-07-04T17:59:14.817Z,60.54
2018-07-04T18:01:54.456Z,59.53
2018-07-04T18:04:33.909Z,61.62
2018-07-04T18:07:14.348Z,62.56
2018-07-04T18:09:53.850Z,62.63
2018-07-04T18:12:33.425Z,63.48
2018-07-04T18:15:12.889Z,62.77
2018-07-04T18:17:52.488Z,62.34
2018-07-04T18:20:31.767Z,61.57
2018-07-04T18:23:11.359Z,62.18
2018-07-04T18:25:50.971Z,61.33
2018-07-04T18:28:30.529Z,59.03
2018-07-04T18:31:10.021Z,55.20
2018-07-04T18:33:49.558Z,51.95
2018-07-04T18:36:28.899Z,53.12
2018-07-04T18:39:08.465Z,55.96
2018-07-04T18:41:48.079Z,60.00
2018-07-04T18:44:27.508Z,61.24
2018-07-04T18:47:06.902Z,63.45
2018-07-04T18:49:46.305Z,65.74
2018-07-04T18:52:25.741Z,68.39
2018-07-04T18:55:05.214Z,68.97
2018-07-04T18:57:44.842Z,67.80
2018-07-04T19:00:24.418Z,69.47
2018-07-04T19:03:03.900Z,69.12
2018-07-04T19:05:43.629Z,70.18
2018-07-04T19:08:23.125Z,70.97
2018-07-04T19:11:02.602Z,71.04
2018-07-04T19:13:42.219Z,71.47
2018-07-04T19:16:21.812Z,71.68
2018-07-04T19:19:01.390Z,71.99
2018-07-04T19:21:41.321Z,73.90
2018-07-04T19:24:20.837Z,73.29
2018-07-04T19:27:01.362Z,74.06
2018-07-04T19:29:41.001Z,74.15
2018-07-04T19:32:21.068Z,74.14
2018-07-04T19:35:00.633Z,74.06
2018-07-04T19:37:40.276Z,74.15
2018-07-04T19:40:20.858Z,75.30
2018-07-04T19:43:00.470Z,76.33
2018-07-04T19:45:40.029Z,77.24
2018-07-04T19:48:19.598Z,77.58
2018-07-04T19:50:59.161Z,78.54
2018-07-04T19:56:11.774Z,80.14
2018-07-04T19:58:51.492Z,81.16
2018-07-04T20:01:31.035Z,81.70
2018-07-04T20:04:10.536Z,82.35
2018-07-04T20:06:50.217Z,83.11
2018-07-04T20:09:31.189Z,83.62
2018-07-04T20:12:10.598Z,84.33
2018-07-04T20:14:50.250Z,84.39
2018-07-04T20:17:29.866Z,85.02
2018-07-04T20:20:09.379Z,84.64
2018-07-04T20:22:49.980Z,85.41
2018-07-04T20:25:29.756Z,85.59
2018-07-04T20:28:09.249Z,85.71
2018-07-04T20:30:52.690Z,84.84
2018-07-04T20:33:33.514Z,85.66
2018-07-04T20:36:13.126Z,84.99
2018-07-04T20:38:52.747Z,85.43
2018-07-04T20:41:32.201Z,85.55
2018-07-04T20:44:11.817Z,86.00
2018-07-04T20:46:51.367Z,86.49
2018-07-04T20:49:30.807Z,85.72
2018-07-04T20:52:10.469Z,86.28
2018-07-04T20:54:49.992Z,87.44
2018-07-04T20:57:29.657Z,85.76
2018-07-04T21:00:09.236Z,86.30
2018-07-04T21:02:48.739Z,87.89
2018-07-04T21:05:28.348Z,87.26
2018-07-04T21:08:07.925Z,87.62
2018-07-04T21:10:47.475Z,87.53
2018-07-04T21:13:26.985Z,87.61
2018-07-04T21:16:06.651Z,86.86
2018-07-04T21:18:46.134Z,87.71
2018-07-04T21:21:25.615Z,88.66
2018-07-04T21:24:05.298Z,88.27
2018-07-04T21:26:44.771Z,88.80
2018-07-04T21:29:24.750Z,88.22
2018-07-04T21:32:04.207Z,89.27
2018-07-04T21:34:43.644Z,89.07
2018-07-04T21:37:23.272Z,88.65
2018-07-04T21:40:02.850Z,89.50
2018-07-04T21:42:42.648Z,89.15
2018-07-04T21:45:22.233Z,89.81
2018-07-04T21:48:01.830Z,88.58
2018-07-04T21:50:41.358Z,89.00
2018-07-04T21:53:20.983Z,89.13
2018-07-04T21:56:00.610Z,89.28
2018-07-04T21:58:40.804Z,89.69
2018-07-04T22:01:20.260Z,89.70
2018-07-04T22:03:59.847Z,90.03
2018-07-04T22:06:39.426Z,90.42
2018-07-04T22:09:19.014Z,88.89
2018-07-04T22:11:58.608Z,88.70
2018-07-04T22:14:38.192Z,88.16
2018-07-04T22:17:17.601Z,88.07
2018-07-04T22:19:57.094Z,87.82
2018-07-04T22:22:36.692Z,87.95
2018-07-04T22:25:16.137Z,88.68
2018-07-04T22:27:55.595Z,89.27
2018-07-04T22:30:35.162Z,88.87
2018-07-04T22:33:14.776Z,88.87
2018-07-04T22:35:54.264Z,88.55
2018-07-04T22:38:33.790Z,89.94
2018-07-04T22:41:13.381Z,89.72
2018-07-04T22:43:52.969Z,90.59
2018-07-04T22:46:32.473Z,89.65
2018-07-04T22:49:12.056Z,90.52
2018-07-04T22:51:51.637Z,89.83
2018-07-04T22:54:31.139Z,90.44
2018-07-04T22:57:10.721Z,90.47
2018-07-04T22:59:50.290Z,92.22
2018-07-04T23:02:29.862Z,91.94
2018-07-04T23:05:09.449Z,92.37
2018-07-04T23:07:49.030Z,91.77
2018-07-04T23:10:28.609Z,91.29
2018-07-04T23:13:08.187Z,91.23
2018-07-04T23:15:47.794Z,91.12
2018-07-04T23:18:27.441Z,91.25
2018-07-04T23:21:07.009Z,91.50
2018-07-04T23:23:46.973Z,90.74
2018-07-04T23:26:26.421Z,91.11
2018-07-04T23:29:06.046Z,92.05
2018-07-04T23:31:45.644Z,92.61
2018-07-04T23:34:25.139Z,92.82
2018-07-04T23:37:04.774Z,92.29
2018-07-04T23:39:44.649Z,92.60
2018-07-04T23:42:24.123Z,92.52
2018-07-04T23:45:03.696Z,92.83
2018-07-04T23:47:43.291Z,93.18
2018-07-04T23:50:22.947Z,92.81
2018-07-04T23:53:02.496Z,91.11
2018-07-04T23:55:42.114Z,90.43
2018-07-04T23:58:21.714Z,90.83
